createdAt,value
2018-06-11T00:01:43.782Z,12.27
2018-06-11T00:04:12.262Z,15.23
2018-06-11T00:06:40.705Z,13.50
2018-06-11T00:09:09.195Z,13.37
2018-06-11T00:11:37.776Z,13.33
2018-06-11T00:14:06.228Z,17.23
2018-06-11T00:16:34.842Z,12.70
2018-06-11T00:19:03.325Z,12.80
2018-06-11T00:21:31.752Z,12.93
2018-06-11T00:24:00.262Z,14.60
2018-06-11T00:26:28.825Z,13.10
2018-06-11T00:28:57.278Z,14.00
2018-06-11T00:31:25.753Z,14.50
2018-06-11T00:33:54.247Z,15.33
2018-06-11T00:36:22.704Z,14.90
2018-06-11T00:38:51.154Z,15.07
2018-06-11T00:41:19.649Z,15.47
2018-06-11T00:43:48.131Z,14.70
2018-06-11T00:46:16.580Z,15.53
2018-06-11T00:48:45.153Z,15.57
2018-06-11T00:51:13.677Z,17.10
2018-06-11T00:53:42.161Z,16.77
2018-06-11T00:56:10.812Z,16.43
2018-06-11T00:58:39.413Z,15.63
2018-06-11T01:01:07.868Z,18.33
2018-06-11T01:03:36.383Z,16.77
2018-06-11T01:06:04.885Z,17.03
2018-06-11T01:08:33.339Z,17.93
2018-06-11T01:11:02.364Z,17.57
2018-06-11T01:13:30.852Z,17.83
2018-06-11T01:15:59.304Z,18.40
2018-06-11T01:18:27.812Z,17.77
2018-06-11T01:20:56.291Z,16.40
2018-06-11T01:23:24.780Z,16.67
2018-06-11T01:25:53.214Z,16.93
2018-06-11T01:28:21.668Z,16.93
2018-06-11T01:30:50.225Z,17.27
2018-06-11T01:33:18.735Z,17.53
2018-06-11T01:35:47.179Z,17.07
2018-06-11T01:38:15.616Z,17.33
2018-06-11T01:40:44.143Z,19.73
2018-06-11T01:43:12.716Z,18.43
2018-06-11T01:45:41.253Z,17.27
2018-06-11T01:48:09.704Z,17.00
2018-06-11T01:50:38.154Z,17.93
2018-06-11T01:53:06.666Z,17.77
2018-06-11T01:55:35.164Z,18.40
2018-06-11T01:58:03.655Z,16.93
2018-06-11T02:00:32.150Z,18.27
2018-06-11T02:03:00.640Z,16.43
2018-06-11T02:05:29.195Z,16.93
2018-06-11T02:07:57.635Z,17.70
2018-06-11T02:10:26.120Z,16.43
2018-06-11T02:12:54.600Z,17.03
2018-06-11T02:15:23.110Z,16.67
2018-06-11T02:17:51.799Z,15.60
2018-06-11T02:20:20.292Z,17.30
2018-06-11T02:22:48.752Z,19.10
2018-06-11T02:25:16.912Z,17.97
2018-06-11T02:27:45.386Z,17.67
2018-06-11T02:30:13.889Z,17.60
2018-06-11T02:32:42.363Z,18.60
2018-06-11T02:35:10.850Z,17.97
2018-06-11T02:37:39.316Z,17.77
2018-06-11T02:40:07.786Z,17.93
2018-06-11T02:42:36.232Z,18.13
2018-06-11T02:45:04.844Z,17.53
2018-06-11T02:47:33.313Z,17.47
2018-06-11T02:50:01.818Z,16.70
2018-06-11T02:52:30.322Z,17.93
2018-06-11T02:54:58.781Z,17.40
2018-06-11T02:57:27.274Z,17.87
2018-06-11T02:59:55.772Z,18.00
2018-06-11T03:02:24.255Z,19.77
2018-06-11T03:04:52.693Z,19.47
2018-06-11T03:07:21.121Z,18.63
2018-06-11T03:09:49.285Z,19.40
2018-06-11T03:12:17.697Z,19.13
2018-06-11T03:14:46.201Z,19.53
2018-06-11T03:17:15.215Z,20.87
2018-06-11T03:19:43.701Z,20.33
2018-06-11T03:22:12.227Z,19.37
2018-06-11T03:24:40.705Z,18.57
2018-06-11T03:27:09.190Z,18.57
2018-06-11T03:29:37.717Z,19.07
2018-06-11T03:32:06.454Z,20.27
2018-06-11T03:34:34.893Z,18.93
2018-06-11T03:37:03.398Z,18.37
2018-06-11T03:39:31.904Z,19.73
2018-06-11T03:42:00.378Z,18.90
2018-06-11T03:44:28.934Z,17.70
2018-06-11T03:46:57.393Z,16.73
2018-06-11T03:49:25.915Z,18.43
2018-06-11T03:51:54.393Z,17.47
2018-06-11T03:54:22.837Z,18.33
2018-06-11T03:56:51.340Z,18.97
2018-06-11T03:59:19.824Z,17.80
2018-06-11T04:01:48.329Z,18.53
2018-06-11T04:04:16.816Z,18.80
2018-06-11T04:06:45.379Z,19.17
2018-06-11T04:09:13.848Z,20.10
2018-06-11T04:11:42.300Z,19.37
2018-06-11T04:14:10.796Z,20.40
2018-06-11T04:16:39.267Z,20.37
2018-06-11T04:19:07.722Z,20.37
2018-06-11T04:21:36.566Z,20.70
2018-06-11T04:24:05.103Z,20.43
2018-06-11T04:26:33.661Z,20.73
2018-06-11T04:29:02.137Z,21.43
2018-06-11T04:31:30.641Z,22.77
2018-06-11T04:33:59.136Z,22.10
2018-06-11T04:36:27.638Z,20.33
2018-06-11T04:38:56.116Z,22.23
2018-06-11T04:41:25.096Z,23.10
2018-06-11T04:43:53.565Z,21.67
2018-06-11T04:46:22.110Z,25.70
2018-06-11T04:48:50.588Z,22.97
2018-06-11T04:51:19.044Z,20.83
2018-06-11T04:53:47.528Z,24.67
2018-06-11T04:56:15.986Z,24.60
2018-06-11T04:58:44.568Z,25.53
2018-06-11T05:01:13.009Z,23.03
2018-06-11T05:03:41.465Z,23.47
2018-06-11T05:06:09.997Z,21.63
2018-06-11T05:08:38.749Z,24.23
2018-06-11T05:11:07.252Z,25.03
2018-06-11T05:13:36.144Z,23.07
2018-06-11T05:16:04.648Z,22.70
2018-06-11T05:18:33.359Z,24.10
2018-06-11T05:21:01.881Z,22.03
2018-06-11T05:23:30.454Z,24.50
2018-06-11T05:25:58.978Z,23.43
2018-06-11T05:28:27.558Z,21.13
2018-06-11T05:30:56.590Z,23.23
2018-06-11T05:33:25.322Z,20.23
2018-06-11T05:35:53.938Z,22.50
2018-06-11T05:38:22.546Z,20.50
2018-06-11T05:40:51.198Z,20.67
2018-06-11T05:43:19.786Z,20.63
2018-06-11T05:45:49.267Z,20.80
2018-06-11T05:48:17.808Z,18.90
2018-06-11T05:50:46.319Z,16.00
2018-06-11T05:53:14.794Z,16.00
2018-06-11T05:55:43.362Z,15.83
2018-06-11T05:58:11.899Z,13.80
2018-06-11T06:00:40.434Z,17.67
2018-06-11T06:03:09.041Z,14.40
2018-06-11T06:05:37.579Z,17.50
2018-06-11T06:08:06.183Z,15.33
2018-06-11T06:10:34.857Z,15.90
2018-06-11T06:13:03.520Z,16.63
2018-06-11T06:15:32.093Z,16.73
2018-06-11T06:18:00.843Z,13.17
2018-06-11T06:20:30.892Z,13.43
2018-06-11T06:22:59.481Z,17.17
2018-06-11T06:25:28.114Z,18.23
2018-06-11T06:27:56.639Z,15.77
2018-06-11T06:30:25.533Z,14.83
2018-06-11T06:33:00.520Z,16.40
2018-06-11T06:35:30.045Z,15.47
2018-06-11T06:37:58.694Z,18.80
2018-06-11T06:40:28.817Z,19.13
2018-06-11T06:42:58.637Z,17.80
2018-06-11T06:45:28.103Z,15.13
2018-06-11T06:47:56.722Z,18.73
2018-06-11T06:50:25.860Z,17.97
2018-06-11T06:52:54.582Z,15.13
2018-06-11T06:55:23.498Z,17.80
2018-06-11T06:57:52.084Z,16.40
2018-06-11T07:00:20.802Z,17.67
2018-06-11T07:02:50.194Z,15.57
2018-06-11T07:05:18.670Z,13.57
2018-06-11T07:07:47.132Z,13.83
2018-06-11T07:10:15.773Z,12.43
2018-06-11T07:12:44.238Z,12.63
2018-06-11T07:15:12.717Z,13.93
2018-06-11T07:17:41.780Z,12.67
2018-06-11T07:20:10.232Z,12.27
2018-06-11T07:22:38.726Z,12.60
2018-06-11T07:25:07.246Z,12.47
2018-06-11T07:27:35.652Z,12.73
2018-06-11T07:30:04.139Z,12.93
2018-06-11T07:32:32.672Z,16.40
2018-06-11T07:35:01.165Z,17.77
2018-06-11T07:37:29.603Z,14.47
2018-06-11T07:39:57.736Z,15.30
2018-06-11T07:42:26.230Z,12.63
2018-06-11T07:44:54.739Z,15.70
2018-06-11T07:47:23.202Z,13.23
2018-06-11T07:49:51.709Z,15.70
2018-06-11T07:52:20.192Z,14.63
2018-06-11T07:54:48.644Z,12.83
2018-06-11T07:57:17.209Z,13.83
2018-06-11T07:59:45.633Z,13.50
2018-06-11T08:02:14.093Z,11.23
2018-06-11T08:04:42.580Z,12.80
2018-06-11T08:07:11.074Z,10.80
2018-06-11T08:09:39.595Z,13.60
2018-06-11T08:12:08.130Z,12.90
2018-06-11T08:14:36.557Z,12.63
2018-06-11T08:17:05.059Z,11.30
2018-06-11T08:19:34.185Z,10.00
2018-06-11T08:22:02.686Z,12.67
2018-06-11T08:24:31.144Z,11.90
2018-06-11T08:26:59.603Z,9.87
2018-06-11T08:29:28.036Z,10.23
2018-06-11T08:31:56.529Z,10.07
2018-06-11T08:34:25.018Z,9.40
2018-06-11T08:36:53.538Z,10.63
2018-06-11T08:39:22.054Z,8.67
2018-06-11T08:41:50.562Z,8.57
2018-06-11T08:44:19.129Z,9.30
2018-06-11T08:46:47.594Z,9.23
2018-06-11T08:49:16.054Z,10.10
2018-06-11T08:51:44.572Z,9.73
2018-06-11T08:54:13.070Z,9.80
2018-06-11T08:56:41.590Z,11.20
2018-06-11T08:59:10.322Z,8.93
2018-06-11T09:01:38.850Z,11.17
2018-06-11T09:04:07.300Z,11.97
2018-06-11T09:06:35.753Z,10.23
2018-06-11T09:09:06.540Z,11.13
2018-06-11T09:11:34.998Z,8.63
2018-06-11T09:14:04.047Z,10.53
2018-06-11T09:16:32.493Z,10.80
2018-06-11T09:19:00.942Z,9.80
2018-06-11T09:21:29.450Z,7.93
2018-06-11T09:23:57.916Z,8.70
2018-06-11T09:26:26.461Z,8.43
2018-06-11T09:28:54.930Z,9.13
2018-06-11T09:31:23.392Z,8.97
2018-06-11T09:33:51.904Z,8.50
2018-06-11T09:36:20.377Z,7.83
2018-06-11T09:38:48.847Z,8.20
2018-06-11T09:41:17.358Z,11.23
2018-06-11T09:43:45.961Z,8.90
2018-06-11T09:46:14.372Z,10.93
2018-06-11T09:48:42.836Z,8.67
2018-06-11T09:51:11.297Z,8.87
2018-06-11T09:53:39.795Z,8.50
2018-06-11T09:56:08.302Z,8.37
2018-06-11T09:58:36.997Z,9.10
2018-06-11T10:01:05.444Z,9.27
2018-06-11T10:03:33.937Z,11.87
2018-06-11T10:06:02.096Z,8.53
2018-06-11T10:08:30.605Z,9.33
2018-06-11T10:10:59.102Z,9.60
2018-06-11T10:13:27.554Z,10.50
2018-06-11T10:15:56.033Z,10.33
2018-06-11T10:18:24.530Z,11.63
2018-06-11T10:20:52.999Z,9.80
2018-06-11T10:23:21.478Z,11.13
2018-06-11T10:25:49.983Z,10.93
2018-06-11T10:28:18.476Z,12.20
2018-06-11T10:30:46.977Z,11.97
2018-06-11T10:33:16.417Z,12.27
2018-06-11T10:35:45.072Z,12.40
2018-06-11T10:38:13.569Z,12.83
2018-06-11T10:40:42.021Z,12.63
2018-06-11T10:43:10.612Z,13.53
2018-06-11T10:45:39.134Z,12.93
2018-06-11T10:48:07.626Z,14.00
2018-06-11T10:50:36.033Z,14.13
2018-06-11T10:53:04.506Z,15.10
2018-06-11T10:55:33.045Z,14.87
2018-06-11T10:58:01.605Z,14.77
2018-06-11T11:00:30.095Z,14.77
2018-06-11T11:02:58.552Z,14.53
2018-06-11T11:05:27.047Z,13.30
2018-06-11T11:07:55.976Z,13.67
2018-06-11T11:10:25.536Z,12.87
2018-06-11T11:12:54.023Z,13.97
2018-06-11T11:15:22.585Z,14.53
2018-06-11T11:17:51.100Z,14.90
2018-06-11T11:20:19.621Z,14.67
2018-06-11T11:22:48.198Z,14.53
2018-06-11T11:25:16.720Z,14.60
2018-06-11T11:27:45.338Z,13.17
2018-06-11T11:30:13.877Z,13.60
2018-06-11T11:32:42.392Z,13.73
2018-06-11T11:35:10.921Z,14.10
2018-06-11T11:37:39.472Z,15.63
2018-06-11T11:40:08.010Z,14.40
2018-06-11T11:42:36.538Z,14.10
2018-06-11T11:45:05.073Z,11.87
2018-06-11T11:47:33.690Z,11.67
2018-06-11T11:50:02.192Z,12.33
2018-06-11T11:52:30.755Z,11.67
2018-06-11T11:54:59.336Z,11.33
2018-06-11T11:57:27.911Z,12.80
2018-06-11T11:59:56.693Z,12.57
2018-06-11T12:02:25.246Z,12.40
2018-06-11T12:04:53.803Z,13.23
2018-06-11T12:07:22.428Z,12.27
2018-06-11T12:09:50.713Z,12.23
2018-06-11T12:12:19.218Z,13.07
2018-06-11T12:14:47.860Z,11.77
2018-06-11T12:17:16.503Z,11.13
2018-06-11T12:19:45.131Z,11.50
2018-06-11T12:22:13.726Z,11.20
2018-06-11T12:24:42.334Z,11.57
2018-06-11T12:27:11.862Z,11.73
2018-06-11T12:29:40.522Z,11.10
2018-06-11T12:32:09.130Z,11.83
2018-06-11T12:34:37.739Z,12.30
2018-06-11T12:37:06.363Z,12.23
2018-06-11T12:39:34.934Z,12.40
2018-06-11T12:42:03.572Z,11.40
2018-06-11T12:44:32.172Z,11.60
2018-06-11T12:47:01.523Z,12.73
2018-06-11T12:49:30.126Z,12.03
2018-06-11T12:51:58.751Z,11.90
2018-06-11T12:54:27.415Z,12.40
2018-06-11T12:56:56.115Z,13.17
2018-06-11T13:12:27.885Z,12.20
2018-06-11T13:23:48.768Z,12.33
2018-06-11T13:37:57.745Z,13.60
2018-06-11T13:54:56.074Z,14.17
2018-06-11T13:57:46.009Z,13.73
2018-06-11T14:00:31.625Z,15.87
2018-06-11T14:06:13.298Z,15.07
2018-06-11T14:37:27.326Z,12.77
2018-06-11T15:19:34.410Z,11.90
2018-06-11T15:22:03.526Z,11.83
2018-06-11T15:24:32.781Z,10.90
2018-06-11T15:27:01.435Z,13.47
2018-06-11T15:29:31.720Z,11.23
2018-06-11T15:32:00.139Z,11.93
2018-06-11T15:34:28.662Z,13.00
2018-06-11T15:36:57.638Z,14.03
2018-06-11T15:39:26.235Z,15.77
2018-06-11T15:41:55.073Z,14.07
2018-06-11T15:44:23.719Z,14.37
2018-06-11T15:46:52.346Z,13.27
2018-06-11T15:49:20.994Z,14.37
2018-06-11T15:51:49.571Z,14.17
2018-06-11T15:54:18.220Z,16.40
2018-06-11T15:56:46.971Z,13.03
2018-06-11T15:59:15.603Z,13.60
2018-06-11T16:01:44.292Z,14.03
2018-06-11T16:04:12.933Z,14.07
2018-06-11T16:06:41.557Z,13.63
2018-06-11T16:09:10.179Z,13.87
2018-06-11T16:11:38.828Z,12.70
2018-06-11T16:14:07.457Z,13.80
2018-06-11T16:16:36.042Z,13.43
2018-06-11T16:19:05.090Z,13.33
2018-06-11T16:21:34.493Z,13.20
2018-06-11T16:24:03.029Z,13.40
2018-06-11T16:26:31.565Z,14.83
2018-06-11T16:29:00.061Z,12.87
2018-06-11T16:31:28.568Z,12.97
2018-06-11T16:33:57.148Z,12.57
2018-06-11T16:36:25.748Z,11.10
2018-06-11T16:38:54.381Z,12.20
2018-06-11T16:41:23.036Z,12.47
2018-06-11T16:43:51.517Z,11.43
2018-06-11T16:46:19.981Z,11.03
2018-06-11T16:48:48.482Z,10.73
2018-06-11T16:51:16.578Z,11.13
2018-06-11T16:53:45.123Z,11.30
2018-06-11T16:56:13.582Z,10.70
2018-06-11T16:58:42.097Z,11.70
2018-06-11T17:01:10.581Z,12.17
2018-06-11T17:03:39.014Z,11.57
2018-06-11T17:06:07.493Z,11.40
2018-06-11T17:08:35.973Z,11.80
2018-06-11T17:11:04.458Z,11.60
2018-06-11T17:13:32.632Z,12.10
2018-06-11T17:16:01.154Z,12.70
2018-06-11T17:18:29.634Z,12.70
2018-06-11T17:20:58.427Z,12.53
2018-06-11T17:23:26.939Z,13.10
2018-06-11T17:25:55.469Z,13.07
2018-06-11T17:28:24.073Z,13.20
2018-06-11T17:30:52.658Z,13.47
2018-06-11T17:33:21.265Z,12.73
2018-06-11T17:35:49.747Z,17.30
2018-06-11T17:38:18.351Z,15.70
2018-06-11T17:40:47.005Z,13.63
2018-06-11T17:43:15.619Z,13.23
2018-06-11T17:45:44.405Z,13.33
2018-06-11T17:48:13.090Z,12.83
2018-06-11T17:50:42.685Z,13.80
2018-06-11T17:53:11.390Z,14.03
2018-06-11T17:55:40.078Z,14.77
2018-06-11T17:58:08.711Z,16.03
2018-06-11T18:00:37.410Z,14.63
2018-06-11T18:03:06.362Z,14.63
2018-06-11T18:05:35.154Z,13.07
2018-06-11T18:08:03.797Z,13.17
2018-06-11T18:10:32.448Z,13.13
2018-06-11T18:13:01.133Z,15.93
2018-06-11T18:15:29.757Z,13.87
2018-06-11T18:17:58.385Z,14.27
2018-06-11T18:20:27.033Z,13.90
2018-06-11T18:22:55.743Z,15.20
2018-06-11T18:25:24.324Z,15.10
2018-06-11T18:27:53.162Z,13.90
2018-06-11T18:30:21.850Z,15.03
2018-06-11T18:32:50.471Z,14.70
2018-06-11T18:35:19.219Z,14.67
2018-06-11T18:37:47.849Z,14.20
2018-06-11T18:40:16.721Z,15.17
2018-06-11T18:42:46.328Z,18.77
2018-06-11T18:45:14.930Z,15.30
2018-06-11T18:47:43.583Z,15.27
2018-06-11T18:50:12.574Z,14.60
2018-06-11T18:52:41.303Z,15.07
2018-06-11T18:55:10.054Z,14.63
2018-06-11T18:57:38.764Z,15.93
2018-06-11T19:00:07.633Z,15.37
2018-06-11T19:02:36.272Z,15.80
2018-06-11T19:05:05.045Z,17.50
2018-06-11T19:07:33.879Z,15.07
2018-06-11T19:10:03.100Z,15.93
2018-06-11T19:12:32.156Z,17.10
2018-06-11T19:15:00.883Z,17.50
2018-06-11T19:17:29.569Z,16.27
2018-06-11T19:19:58.631Z,16.40
2018-06-11T19:22:27.283Z,16.73
2018-06-11T19:24:56.277Z,16.87
2018-06-11T19:27:25.329Z,16.60
2018-06-11T19:29:54.064Z,16.17
2018-06-11T19:32:22.691Z,16.63
2018-06-11T19:34:51.230Z,16.97
2018-06-11T19:37:21.126Z,16.47
2018-06-11T19:39:50.541Z,17.07
2018-06-11T19:42:19.249Z,17.17
2018-06-11T19:44:48.077Z,17.70
2018-06-11T19:47:17.320Z,16.90
2018-06-11T19:49:46.237Z,17.57
2018-06-11T19:52:15.115Z,16.90
2018-06-11T19:54:43.785Z,17.97
2018-06-11T19:57:12.416Z,18.03
2018-06-11T19:59:41.083Z,18.83
2018-06-11T20:02:09.979Z,18.67
2018-06-11T20:04:38.603Z,18.27
2018-06-11T20:07:07.337Z,17.77
2018-06-11T20:09:36.019Z,19.20
2018-06-11T20:12:05.706Z,19.40
2018-06-11T20:14:34.314Z,20.67
2018-06-11T20:17:02.999Z,19.60
2018-06-11T20:19:32.686Z,20.73
2018-06-11T20:22:01.664Z,19.87
2018-06-11T20:24:31.050Z,20.87
2018-06-11T20:26:59.653Z,18.17
2018-06-11T20:29:28.281Z,19.30
2018-06-11T20:31:59.282Z,18.30
2018-06-11T20:34:30.097Z,18.50
2018-06-11T20:36:58.830Z,17.00
2018-06-11T20:39:27.441Z,21.27
2018-06-11T20:41:57.089Z,19.73
2018-06-11T20:44:25.822Z,19.20
2018-06-11T20:46:54.495Z,23.00
2018-06-11T20:49:23.593Z,22.53
2018-06-11T20:51:53.755Z,21.70
2018-06-11T20:54:22.927Z,24.40
2018-06-11T20:56:51.508Z,22.00
2018-06-11T20:59:20.109Z,25.00
2018-06-11T21:01:48.769Z,31.43
2018-06-11T21:04:17.438Z,27.37
2018-06-11T21:06:47.106Z,29.13
2018-06-11T21:09:15.733Z,25.93
2018-06-11T21:11:45.465Z,25.37
2018-06-11T21:14:14.604Z,24.20
2018-06-11T21:16:43.653Z,24.17
2018-06-11T21:19:12.584Z,23.63
2018-06-11T21:21:41.303Z,25.07
2018-06-11T21:24:11.238Z,28.00
2018-06-11T21:26:40.038Z,23.40
2018-06-11T21:29:09.590Z,23.67
2018-06-11T21:31:38.546Z,24.17
2018-06-11T21:34:07.411Z,26.10
2018-06-11T21:36:37.374Z,24.67
2018-06-11T21:39:08.782Z,25.20
2018-06-11T21:41:37.568Z,25.67
2018-06-11T21:44:06.400Z,25.40
2018-06-11T21:46:36.788Z,25.50
2018-06-11T21:49:05.555Z,27.07
2018-06-11T21:51:34.161Z,29.27
2018-06-11T21:54:03.819Z,28.30
2018-06-11T21:56:32.481Z,30.57
2018-06-11T21:59:01.096Z,29.67
2018-06-11T22:01:30.050Z,29.10
2018-06-11T22:03:58.950Z,27.60
2018-06-11T22:06:27.641Z,28.37
2018-06-11T22:08:56.275Z,28.77
2018-06-11T22:11:25.420Z,28.73
2018-06-11T22:13:54.012Z,28.53
2018-06-11T22:16:25.424Z,30.67
2018-06-11T22:18:55.847Z,30.63
2018-06-11T22:21:25.637Z,29.97
2018-06-11T22:23:58.292Z,29.43
2018-06-11T22:26:27.719Z,29.80
2018-06-11T22:28:56.304Z,29.07
2018-06-11T22:31:25.732Z,28.07
2018-06-11T22:33:54.265Z,28.70
2018-06-11T22:36:22.825Z,28.90
2018-06-11T22:38:53.111Z,28.30
2018-06-11T22:41:23.919Z,28.43
2018-06-11T22:43:53.484Z,29.20
2018-06-11T22:46:22.335Z,28.77
2018-06-11T22:48:51.104Z,30.53
2018-06-11T22:51:19.970Z,28.00
2018-06-11T22:53:48.435Z,25.47
2018-06-11T22:56:17.895Z,28.80
2018-06-11T22:58:46.450Z,27.23
2018-06-11T23:01:15.522Z,27.13
2018-06-11T23:03:44.114Z,28.50
2018-06-11T23:06:13.734Z,28.33
2018-06-11T23:08:42.681Z,27.80
2018-06-11T23:11:11.184Z,29.73
2018-06-11T23:13:40.199Z,27.77
2018-06-11T23:16:09.763Z,26.23
2018-06-11T23:18:38.452Z,25.73
2018-06-11T23:21:07.134Z,23.97
2018-06-11T23:23:35.639Z,24.17
2018-06-11T23:26:05.867Z,25.67
2018-06-11T23:28:34.442Z,24.07
2018-06-11T23:31:04.724Z,25.07
2018-06-11T23:33:34.906Z,25.67
2018-06-11T23:36:03.387Z,24.90
2018-06-11T23:38:32.441Z,25.30
2018-06-11T23:41:01.379Z,24.90
2018-06-11T23:43:30.723Z,25.97
2018-06-11T23:45:59.531Z,25.40
2018-06-11T23:48:28.905Z,25.33
2018-06-11T23:50:58.197Z,24.77
2018-06-11T23:53:27.066Z,25.27
2018-06-11T23:55:55.558Z,26.97
2018-06-11T23:58:24.260Z,24.03
